Hansa Marburg — A8KV6 — position and weather

sailwx.info

Track history (hours):
 
Tides and Currents Weather Stations Pressure Air Temp Water Temp Dewpoint Dewpoint Depression Visibility Wind Speed Wind Dir Waves Ship Positions

Hansa Marburg

Last reported at 2014-Jul-19 08:33 UTC. Time now 2014-Aug-23 01:37 UTC.
Position N 36°60' W 001°23'.
Warning: this ship's position is 34 days out of date.

Length 175 m; draft 9.2 m.

Type: Ship (hazmat cat A). MMSI: 636091218.

Date/timePositionNaut miles runAvg speedWind from/ knotsBaromVisibWave heightAir tempDewpointWater temp
2014-Jul-19 08:33N 36°60' W 001°23'1515.0
2014-Jul-19 07:33N 37°09' W 001°09'1514.9
2014-Jul-19 06:33N 37°19' W 000°55'1515.0
2014-Jul-19 05:33N 37°29' W 000°40'2219.9
2014-Jul-19 04:26N 37°46' W 000°23'1714.9
2014-Jul-19 03:16N 38°01' W 000°11'6 7.8
2014-Jul-19 02:30N 38°06' W 000°07'1415.3
2014-Jul-19 01:33N 38°18' E 000°03'6712.6
2014-Jul-18 20:17N 39°23' W 000°13'6 7.6
2014-Jul-18 19:33N 39°27' W 000°19'0 0.1
2014-Jul-18 18:32N 39°27' W 000°19'0 0.0
2014-Jul-18 17:32N 39°27' W 000°19'0 0.0
2014-Jul-18 16:32N 39°27' W 000°19'0 0.0
2014-Jul-18 15:31N 39°27' W 000°19'0 0.0
2014-Jul-18 14:31N 39°27' W 000°19'0 0.0
2014-Jul-18 13:31N 39°27' W 000°19'0 0.0
2014-Jul-18 12:31N 39°27' W 000°19'0 0.0
2014-Jul-18 11:31N 39°27' W 000°19'0 0.0
2014-Jul-18 10:30N 39°27' W 000°19'0 0.0
2014-Jul-18 09:31N 39°27' W 000°19'0 0.0
2014-Jul-18 08:28N 39°27' W 000°19'0 0.0
2014-Jul-18 06:29N 39°27' W 000°19'0 0.0
2014-Jul-18 05:29N 39°27' W 000°19'0 0.0
2014-Jul-18 04:29N 39°27' W 000°19'0 0.0
2014-Jul-18 03:29N 39°27' W 000°19'0 0.0
2014-Jul-18 02:29N 39°27' W 000°19'0 0.0
2014-Jul-18 01:29N 39°27' W 000°19'0 0.0
2014-Jul-18 00:29N 39°27' W 000°19'0 0.0
2014-Jul-17 23:29N 39°27' W 000°19'0 0.0
2014-Jul-17 22:29N 39°27' W 000°19'0 0.0
2014-Jul-17 21:29N 39°27' W 000°19'0 0.0
2014-Jul-17 20:29N 39°27' W 000°19'0 0.0
2014-Jul-17 19:29N 39°27' W 000°19'0 0.0
2014-Jul-17 18:29N 39°27' W 000°19'0 0.0
2014-Jul-17 17:29N 39°27' W 000°19'0 0.0
2014-Jul-17 16:29N 39°27' W 000°19'0 0.0
2014-Jul-17 15:29N 39°27' W 000°19'0 0.0
2014-Jul-17 14:23N 39°27' W 000°19'3 4.0
2014-Jul-17 13:33N 39°26' W 000°15'2 2.0
2014-Jul-17 12:33N 39°26' W 000°12'4 3.6
2014-Jul-17 11:33N 39°30' W 000°10'3414.5
2014-Jul-17 09:13N 39°53' E 000°21'1715.0
2014-Jul-17 08:04N 40°06' E 000°36'815.2
2014-Jul-17 07:33N 40°12' E 000°43'1515.1
2014-Jul-17 06:33N 40°24' E 000°55'1514.7
2014-Jul-17 05:33N 40°38' E 001°03'1515.3
2014-Jul-17 04:33N 40°52' E 001°08'1410.4
2014-Jul-17 03:14N 41°06' E 001°13'0 0.0
2014-Jul-16 23:03N 41°06' E 001°13'0 0.0
2014-Jul-16 22:09N 41°06' E 001°13'1 0.7
2014-Jul-16 21:26N 41°05' E 001°13'8 7.4
2014-Jul-16 20:20N 40°57' E 001°11'1012.9
2014-Jul-16 19:33N 40°47' E 001°08'1615.5
2014-Jul-16 18:33N 40°32' E 001°05'1715.6
2014-Jul-16 17:27N 40°15' E 001°00'1415.2
2014-Jul-16 16:33N 40°02' E 000°57'1615.2
2014-Jul-16 15:32N 39°47' E 000°53'1614.8
2014-Jul-16 14:25N 39°31' E 000°47'3015.2
2014-Jul-16 12:27N 39°02' E 000°36'2915.1
2014-Jul-16 10:33N 38°35' E 000°23'40514.0
2014-Jul-15 05:33N 35°06' W 006°51'1615.6
2014-Jul-15 04:32N 34°55' W 007°04'36813.9
2014-Jul-14 02:03N 30°10' W 011°40'10714.0
2014-Jul-13 18:25N 28°44' W 012°54'  
Track history (hours):
 
Tides and Currents Weather Stations Pressure Air Temp Water Temp Dewpoint Dewpoint Depression Visibility Wind Speed Wind Dir Waves Ship Positions

Hansa Marburg

Last reported at 2014-Jul-19 08:33 UTC. Time now 2014-Aug-23 01:37 UTC.
Position N 36°60' W 001°23'.
Warning: this ship's position is 34 days out of date.

Length 175 m; draft 9.2 m.

Type: Ship (hazmat cat A). MMSI: 636091218.

Date/timePositionNaut miles runAvg speedWind from/ knotsBaromVisibWave heightAir tempDewpointWater temp
2014-Jul-19 08:33N 36°60' W 001°23'1515.0
2014-Jul-19 07:33N 37°09' W 001°09'1514.9
2014-Jul-19 06:33N 37°19' W 000°55'1515.0
2014-Jul-19 05:33N 37°29' W 000°40'2219.9
2014-Jul-19 04:26N 37°46' W 000°23'1714.9
2014-Jul-19 03:16N 38°01' W 000°11'6 7.8
2014-Jul-19 02:30N 38°06' W 000°07'1415.3
2014-Jul-19 01:33N 38°18' E 000°03'6712.6
2014-Jul-18 20:17N 39°23' W 000°13'6 7.6
2014-Jul-18 19:33N 39°27' W 000°19'0 0.1
2014-Jul-18 18:32N 39°27' W 000°19'0 0.0
2014-Jul-18 17:32N 39°27' W 000°19'0 0.0
2014-Jul-18 16:32N 39°27' W 000°19'0 0.0
2014-Jul-18 15:31N 39°27' W 000°19'0 0.0
2014-Jul-18 14:31N 39°27' W 000°19'0 0.0
2014-Jul-18 13:31N 39°27' W 000°19'0 0.0
2014-Jul-18 12:31N 39°27' W 000°19'0 0.0
2014-Jul-18 11:31N 39°27' W 000°19'0 0.0
2014-Jul-18 10:30N 39°27' W 000°19'0 0.0
2014-Jul-18 09:31N 39°27' W 000°19'0 0.0
2014-Jul-18 08:28N 39°27' W 000°19'0 0.0
2014-Jul-18 06:29N 39°27' W 000°19'0 0.0
2014-Jul-18 05:29N 39°27' W 000°19'0 0.0
2014-Jul-18 04:29N 39°27' W 000°19'0 0.0
2014-Jul-18 03:29N 39°27' W 000°19'0 0.0
2014-Jul-18 02:29N 39°27' W 000°19'0 0.0
2014-Jul-18 01:29N 39°27' W 000°19'0 0.0
2014-Jul-18 00:29N 39°27' W 000°19'0 0.0
2014-Jul-17 23:29N 39°27' W 000°19'0 0.0
2014-Jul-17 22:29N 39°27' W 000°19'0 0.0
2014-Jul-17 21:29N 39°27' W 000°19'0 0.0
2014-Jul-17 20:29N 39°27' W 000°19'0 0.0
2014-Jul-17 19:29N 39°27' W 000°19'0 0.0
2014-Jul-17 18:29N 39°27' W 000°19'0 0.0
2014-Jul-17 17:29N 39°27' W 000°19'0 0.0
2014-Jul-17 16:29N 39°27' W 000°19'0 0.0
2014-Jul-17 15:29N 39°27' W 000°19'0 0.0
2014-Jul-17 14:23N 39°27' W 000°19'3 4.0
2014-Jul-17 13:33N 39°26' W 000°15'2 2.0
2014-Jul-17 12:33N 39°26' W 000°12'4 3.6
2014-Jul-17 11:33N 39°30' W 000°10'3414.5
2014-Jul-17 09:13N 39°53' E 000°21'1715.0
2014-Jul-17 08:04N 40°06' E 000°36'815.2
2014-Jul-17 07:33N 40°12' E 000°43'1515.1
2014-Jul-17 06:33N 40°24' E 000°55'1514.7
2014-Jul-17 05:33N 40°38' E 001°03'1515.3
2014-Jul-17 04:33N 40°52' E 001°08'1410.4
2014-Jul-17 03:14N 41°06' E 001°13'0 0.0
2014-Jul-16 23:03N 41°06' E 001°13'0 0.0
2014-Jul-16 22:09N 41°06' E 001°13'1 0.7
2014-Jul-16 21:26N 41°05' E 001°13'8 7.4
2014-Jul-16 20:20N 40°57' E 001°11'1012.9
2014-Jul-16 19:33N 40°47' E 001°08'1615.5
2014-Jul-16 18:33N 40°32' E 001°05'1715.6
2014-Jul-16 17:27N 40°15' E 001°00'1415.2
2014-Jul-16 16:33N 40°02' E 000°57'1615.2
2014-Jul-16 15:32N 39°47' E 000°53'1614.8
2014-Jul-16 14:25N 39°31' E 000°47'3015.2
2014-Jul-16 12:27N 39°02' E 000°36'2915.1
2014-Jul-16 10:33N 38°35' E 000°23'40514.0
2014-Jul-15 05:33N 35°06' W 006°51'1615.6
2014-Jul-15 04:32N 34°55' W 007°04'36813.9
2014-Jul-14 02:03N 30°10' W 011°40'10714.0
2014-Jul-13 18:25N 28°44' W 012°54'  

Dump ship's entire track history